sensor_id;sensor_type;location;lat;lon;timestamp;P1;durP1;ratioP1;P2;durP2;ratioP2
22955;SDS011;40888;48.148;11.526;2023-06-22T00:02:20;6.30;;;3.92;;
22955;SDS011;40888;48.148;11.526;2023-06-22T00:04:46;6.70;;;3.78;;
22955;SDS011;40888;48.148;11.526;2023-06-22T00:07:13;6.35;;;3.80;;
22955;SDS011;40888;48.148;11.526;2023-06-22T00:09:39;5.57;;;3.50;;
22955;SDS011;40888;48.148;11.526;2023-06-22T00:12:11;8.95;;;3.85;;
22955;SDS011;40888;48.148;11.526;2023-06-22T00:14:36;7.65;;;3.88;;
22955;SDS011;40888;48.148;11.526;2023-06-22T00:17:03;8.15;;;3.95;;
22955;SDS011;40888;48.148;11.526;2023-06-22T00:19:29;8.73;;;3.60;;
22955;SDS011;40888;48.148;11.526;2023-06-22T00:21:54;6.70;;;3.92;;
22955;SDS011;40888;48.148;11.526;2023-06-22T00:24:21;6.22;;;3.58;;
22955;SDS011;40888;48.148;11.526;2023-06-22T00:26:47;7.72;;;3.55;;
22955;SDS011;40888;48.148;11.526;2023-06-22T00:29:14;5.70;;;4.25;;
22955;SDS011;40888;48.148;11.526;2023-06-22T00:31:40;7.78;;;3.78;;
22955;SDS011;40888;48.148;11.526;2023-06-22T00:34:05;9.57;;;4.32;;
22955;SDS011;40888;48.148;11.526;2023-06-22T00:36:34;9.23;;;3.63;;
22955;SDS011;40888;48.148;11.526;2023-06-22T00:39:00;8.32;;;4.25;;
22955;SDS011;40888;48.148;11.526;2023-06-22T00:41:26;7.25;;;3.63;;
22955;SDS011;40888;48.148;11.526;2023-06-22T00:43:53;8.32;;;3.95;;
22955;SDS011;40888;48.148;11.526;2023-06-22T00:46:20;8.73;;;3.60;;
22955;SDS011;40888;48.148;11.526;2023-06-22T00:48:48;8.18;;;4.30;;
22955;SDS011;40888;48.148;11.526;2023-06-22T00:51:14;5.65;;;3.55;;
22955;SDS011;40888;48.148;11.526;2023-06-22T00:53:39;9.52;;;3.92;;
22955;SDS011;40888;48.148;11.526;2023-06-22T00:56:06;8.63;;;3.88;;
22955;SDS011;40888;48.148;11.526;2023-06-22T00:58:34;9.73;;;3.95;;
22955;SDS011;40888;48.148;11.526;2023-06-22T01:01:01;10.98;;;4.55;;
22955;SDS011;40888;48.148;11.526;2023-06-22T01:03:27;5.97;;;3.63;;
22955;SDS011;40888;48.148;11.526;2023-06-22T01:05:54;6.65;;;3.85;;
22955;SDS011;40888;48.148;11.526;2023-06-22T01:08:49;9.63;;;4.30;;
22955;SDS011;40888;48.148;11.526;2023-06-22T01:11:26;9.98;;;4.30;;
22955;SDS011;40888;48.148;11.526;2023-06-22T01:14:00;8.35;;;5.03;;
22955;SDS011;40888;48.148;11.526;2023-06-22T01:19:00;8.13;;;4.22;;
22955;SDS011;40888;48.148;11.526;2023-06-22T01:21:32;6.43;;;4.00;;
22955;SDS011;40888;48.148;11.526;2023-06-22T01:24:04;7.85;;;4.25;;
22955;SDS011;40888;48.148;11.526;2023-06-22T01:26:57;6.38;;;3.63;;
22955;SDS011;40888;48.148;11.526;2023-06-22T01:29:50;8.10;;;4.28;;
22955;SDS011;40888;48.148;11.526;2023-06-22T01:32:18;7.82;;;4.50;;
22955;SDS011;40888;48.148;11.526;2023-06-22T01:34:45;7.68;;;4.20;;
22955;SDS011;40888;48.148;11.526;2023-06-22T01:37:12;7.35;;;3.75;;
22955;SDS011;40888;48.148;11.526;2023-06-22T01:39:40;8.27;;;3.85;;
22955;SDS011;40888;48.148;11.526;2023-06-22T01:42:06;8.68;;;4.57;;
22955;SDS011;40888;48.148;11.526;2023-06-22T01:44:32;9.68;;;3.90;;
22955;SDS011;40888;48.148;11.526;2023-06-22T01:46:59;18.35;;;4.05;;
22955;SDS011;40888;48.148;11.526;2023-06-22T01:49:25;6.25;;;3.15;;
22955;SDS011;40888;48.148;11.526;2023-06-22T01:51:51;6.40;;;4.25;;
22955;SDS011;40888;48.148;11.526;2023-06-22T01:54:16;6.80;;;3.72;;
22955;SDS011;40888;48.148;11.526;2023-06-22T01:56:42;7.05;;;4.07;;
22955;SDS011;40888;48.148;11.526;2023-06-22T01:59:24;7.50;;;3.75;;
22955;SDS011;40888;48.148;11.526;2023-06-22T02:01:54;7.90;;;3.80;;
22955;SDS011;40888;48.148;11.526;2023-06-22T02:04:27;5.38;;;3.60;;
22955;SDS011;40888;48.148;11.526;2023-06-22T02:07:17;7.43;;;3.92;;
22955;SDS011;40888;48.148;11.526;2023-06-22T02:09:46;8.88;;;4.20;;
22955;SDS011;40888;48.148;11.526;2023-06-22T02:12:17;5.07;;;3.65;;
22955;SDS011;40888;48.148;11.526;2023-06-22T02:14:46;7.88;;;3.97;;
22955;SDS011;40888;48.148;11.526;2023-06-22T02:17:13;8.88;;;3.97;;
22955;SDS011;40888;48.148;11.526;2023-06-22T02:19:42;6.32;;;4.15;;
22955;SDS011;40888;48.148;11.526;2023-06-22T02:22:08;8.50;;;4.32;;
22955;SDS011;40888;48.148;11.526;2023-06-22T02:24:34;6.90;;;3.92;;
22955;SDS011;40888;48.148;11.526;2023-06-22T02:27:00;8.25;;;4.00;;
22955;SDS011;40888;48.148;11.526;2023-06-22T02:29:27;5.63;;;3.90;;
22955;SDS011;40888;48.148;11.526;2023-06-22T02:31:54;6.68;;;3.85;;
22955;SDS011;40888;48.148;11.526;2023-06-22T02:34:20;7.38;;;4.32;;
22955;SDS011;40888;48.148;11.526;2023-06-22T02:36:47;9.82;;;4.40;;
22955;SDS011;40888;48.148;11.526;2023-06-22T02:39:25;8.85;;;4.47;;
22955;SDS011;40888;48.148;11.526;2023-06-22T02:41:51;9.68;;;4.20;;
22955;SDS011;40888;48.148;11.526;2023-06-22T02:44:19;6.32;;;4.00;;
22955;SDS011;40888;48.148;11.526;2023-06-22T02:46:45;6.38;;;4.35;;
22955;SDS011;40888;48.148;11.526;2023-06-22T02:49:12;9.27;;;4.20;;
22955;SDS011;40888;48.148;11.526;2023-06-22T02:51:39;11.50;;;4.25;;
22955;SDS011;40888;48.148;11.526;2023-06-22T02:54:07;8.40;;;4.28;;
22955;SDS011;40888;48.148;11.526;2023-06-22T02:56:35;6.95;;;4.28;;
22955;SDS011;40888;48.148;11.526;2023-06-22T02:59:02;7.82;;;4.28;;
22955;SDS011;40888;48.148;11.526;2023-06-22T03:01:28;9.25;;;4.57;;
22955;SDS011;40888;48.148;11.526;2023-06-22T03:03:58;7.80;;;5.05;;
22955;SDS011;40888;48.148;11.526;2023-06-22T03:06:24;9.02;;;4.63;;
22955;SDS011;40888;48.148;11.526;2023-06-22T03:08:56;9.65;;;5.13;;
22955;SDS011;40888;48.148;11.526;2023-06-22T03:11:24;10.90;;;4.07;;
22955;SDS011;40888;48.148;11.526;2023-06-22T03:13:50;8.05;;;4.50;;
22955;SDS011;40888;48.148;11.526;2023-06-22T03:16:18;8.27;;;4.72;;
22955;SDS011;40888;48.148;11.526;2023-06-22T03:18:44;8.95;;;5.03;;
22955;SDS011;40888;48.148;11.526;2023-06-22T03:21:10;10.63;;;5.32;;
22955;SDS011;40888;48.148;11.526;2023-06-22T03:23:36;8.52;;;4.78;;
22955;SDS011;40888;48.148;11.526;2023-06-22T03:26:02;10.25;;;4.72;;
22955;SDS011;40888;48.148;11.526;2023-06-22T03:28:27;8.48;;;4.93;;
22955;SDS011;40888;48.148;11.526;2023-06-22T03:30:53;8.00;;;4.70;;
22955;SDS011;40888;48.148;11.526;2023-06-22T03:33:19;6.70;;;4.72;;
22955;SDS011;40888;48.148;11.526;2023-06-22T03:35:45;13.23;;;4.80;;
22955;SDS011;40888;48.148;11.526;2023-06-22T03:38:10;9.15;;;4.57;;
22955;SDS011;40888;48.148;11.526;2023-06-22T03:40:36;7.22;;;4.45;;
22955;SDS011;40888;48.148;11.526;2023-06-22T03:43:02;7.97;;;4.80;;
22955;SDS011;40888;48.148;11.526;2023-06-22T03:45:27;5.97;;;4.53;;
22955;SDS011;40888;48.148;11.526;2023-06-22T03:47:53;8.48;;;4.88;;
22955;SDS011;40888;48.148;11.526;2023-06-22T03:50:19;9.52;;;4.72;;
22955;SDS011;40888;48.148;11.526;2023-06-22T03:52:45;8.52;;;4.53;;
22955;SDS011;40888;48.148;11.526;2023-06-22T03:55:12;8.98;;;4.82;;
22955;SDS011;40888;48.148;11.526;2023-06-22T03:57:37;9.00;;;4.88;;
22955;SDS011;40888;48.148;11.526;2023-06-22T04:00:03;8.25;;;4.75;;
22955;SDS011;40888;48.148;11.526;2023-06-22T04:02:31;8.05;;;5.20;;
22955;SDS011;40888;48.148;11.526;2023-06-22T04:04:56;10.52;;;4.95;;
22955;SDS011;40888;48.148;11.526;2023-06-22T04:07:22;6.90;;;4.75;;
22955;SDS011;40888;48.148;11.526;2023-06-22T04:09:48;7.90;;;4.82;;
22955;SDS011;40888;48.148;11.526;2023-06-22T04:12:13;8.75;;;4.53;;
22955;SDS011;40888;48.148;11.526;2023-06-22T04:14:39;9.40;;;4.78;;
22955;SDS011;40888;48.148;11.526;2023-06-22T04:17:05;8.07;;;5.43;;
22955;SDS011;40888;48.148;11.526;2023-06-22T04:19:31;9.95;;;4.72;;
22955;SDS011;40888;48.148;11.526;2023-06-22T04:21:56;11.45;;;5.22;;
22955;SDS011;40888;48.148;11.526;2023-06-22T04:24:22;9.60;;;5.78;;
22955;SDS011;40888;48.148;11.526;2023-06-22T04:26:48;9.15;;;5.28;;
22955;SDS011;40888;48.148;11.526;2023-06-22T04:29:13;6.53;;;5.03;;
22955;SDS011;40888;48.148;11.526;2023-06-22T04:31:39;8.25;;;5.20;;
22955;SDS011;40888;48.148;11.526;2023-06-22T04:34:06;9.32;;;5.47;;
22955;SDS011;40888;48.148;11.526;2023-06-22T04:36:36;9.50;;;5.32;;
22955;SDS011;40888;48.148;11.526;2023-06-22T04:41:38;10.88;;;6.30;;
22955;SDS011;40888;48.148;11.526;2023-06-22T04:44:08;10.52;;;5.45;;
22955;SDS011;40888;48.148;11.526;2023-06-22T04:46:37;9.65;;;5.20;;
22955;SDS011;40888;48.148;11.526;2023-06-22T04:49:07;11.45;;;6.03;;
22955;SDS011;40888;48.148;11.526;2023-06-22T04:51:40;9.18;;;5.60;;
22955;SDS011;40888;48.148;11.526;2023-06-22T04:54:07;14.82;;;5.80;;
22955;SDS011;40888;48.148;11.526;2023-06-22T04:56:34;13.20;;;5.75;;
22955;SDS011;40888;48.148;11.526;2023-06-22T04:59:00;8.27;;;5.47;;
22955;SDS011;40888;48.148;11.526;2023-06-22T05:01:26;13.13;;;5.28;;
22955;SDS011;40888;48.148;11.526;2023-06-22T05:03:52;11.70;;;5.68;;
22955;SDS011;40888;48.148;11.526;2023-06-22T05:06:22;9.02;;;5.53;;
22955;SDS011;40888;48.148;11.526;2023-06-22T05:08:54;11.32;;;6.05;;
22955;SDS011;40888;48.148;11.526;2023-06-22T05:11:26;9.60;;;5.60;;
22955;SDS011;40888;48.148;11.526;2023-06-22T05:13:52;12.18;;;6.07;;
22955;SDS011;40888;48.148;11.526;2023-06-22T05:16:19;13.20;;;6.32;;
22955;SDS011;40888;48.148;11.526;2023-06-22T05:18:52;14.45;;;7.30;;
22955;SDS011;40888;48.148;11.526;2023-06-22T05:21:21;9.32;;;6.38;;
22955;SDS011;40888;48.148;11.526;2023-06-22T05:23:47;13.82;;;6.03;;
22955;SDS011;40888;48.148;11.526;2023-06-22T05:26:13;17.00;;;6.97;;
22955;SDS011;40888;48.148;11.526;2023-06-22T05:28:38;15.07;;;7.10;;
22955;SDS011;40888;48.148;11.526;2023-06-22T05:31:04;10.15;;;6.65;;
22955;SDS011;40888;48.148;11.526;2023-06-22T05:33:30;9.15;;;5.97;;
22955;SDS011;40888;48.148;11.526;2023-06-22T05:35:55;11.10;;;7.10;;
22955;SDS011;40888;48.148;11.526;2023-06-22T05:38:21;12.05;;;6.55;;
22955;SDS011;40888;48.148;11.526;2023-06-22T05:40:47;10.77;;;6.60;;
22955;SDS011;40888;48.148;11.526;2023-06-22T05:43:13;14.52;;;6.80;;
22955;SDS011;40888;48.148;11.526;2023-06-22T05:45:38;13.93;;;6.72;;
22955;SDS011;40888;48.148;11.526;2023-06-22T05:48:04;13.65;;;7.03;;
22955;SDS011;40888;48.148;11.526;2023-06-22T05:50:30;13.45;;;6.10;;
22955;SDS011;40888;48.148;11.526;2023-06-22T05:52:56;13.68;;;7.07;;
22955;SDS011;40888;48.148;11.526;2023-06-22T05:55:22;15.02;;;6.90;;
22955;SDS011;40888;48.148;11.526;2023-06-22T05:57:47;11.65;;;7.03;;
22955;SDS011;40888;48.148;11.526;2023-06-22T06:00:13;13.07;;;6.35;;
22955;SDS011;40888;48.148;11.526;2023-06-22T06:02:39;14.35;;;6.85;;
22955;SDS011;40888;48.148;11.526;2023-06-22T06:05:12;11.27;;;6.97;;
22955;SDS011;40888;48.148;11.526;2023-06-22T06:07:44;12.30;;;6.55;;
22955;SDS011;40888;48.148;11.526;2023-06-22T06:10:10;14.13;;;7.05;;
22955;SDS011;40888;48.148;11.526;2023-06-22T06:12:36;12.20;;;6.65;;
22955;SDS011;40888;48.148;11.526;2023-06-22T06:15:02;14.73;;;6.95;;
22955;SDS011;40888;48.148;11.526;2023-06-22T06:17:29;12.43;;;6.93;;
22955;SDS011;40888;48.148;11.526;2023-06-22T06:19:55;17.02;;;6.90;;
22955;SDS011;40888;48.148;11.526;2023-06-22T06:22:20;13.65;;;6.90;;
22955;SDS011;40888;48.148;11.526;2023-06-22T06:24:48;12.60;;;6.88;;
22955;SDS011;40888;48.148;11.526;2023-06-22T06:27:15;13.20;;;6.55;;
22955;SDS011;40888;48.148;11.526;2023-06-22T06:29:44;13.75;;;6.60;;
22955;SDS011;40888;48.148;11.526;2023-06-22T06:32:18;11.48;;;7.03;;
22955;SDS011;40888;48.148;11.526;2023-06-22T06:34:44;12.27;;;6.95;;
22955;SDS011;40888;48.148;11.526;2023-06-22T06:37:36;15.43;;;6.75;;
22955;SDS011;40888;48.148;11.526;2023-06-22T06:40:09;12.45;;;6.72;;
22955;SDS011;40888;48.148;11.526;2023-06-22T06:42:36;15.07;;;7.07;;
22955;SDS011;40888;48.148;11.526;2023-06-22T06:45:09;13.57;;;7.18;;
22955;SDS011;40888;48.148;11.526;2023-06-22T06:47:51;13.45;;;6.95;;
22955;SDS011;40888;48.148;11.526;2023-06-22T06:50:17;10.20;;;7.00;;
22955;SDS011;40888;48.148;11.526;2023-06-22T06:52:43;12.88;;;6.38;;
22955;SDS011;40888;48.148;11.526;2023-06-22T06:55:12;14.48;;;6.47;;
22955;SDS011;40888;48.148;11.526;2023-06-22T06:57:39;15.32;;;6.90;;
22955;SDS011;40888;48.148;11.526;2023-06-22T07:00:09;15.48;;;6.80;;
22955;SDS011;40888;48.148;11.526;2023-06-22T07:02:38;14.18;;;6.80;;
22955;SDS011;40888;48.148;11.526;2023-06-22T07:05:05;15.38;;;7.15;;
22955;SDS011;40888;48.148;11.526;2023-06-22T07:07:31;14.25;;;6.85;;
22955;SDS011;40888;48.148;11.526;2023-06-22T07:09:57;15.90;;;7.28;;
22955;SDS011;40888;48.148;11.526;2023-06-22T07:12:23;12.18;;;6.50;;
22955;SDS011;40888;48.148;11.526;2023-06-22T07:14:49;13.57;;;7.63;;
22955;SDS011;40888;48.148;11.526;2023-06-22T07:17:16;13.60;;;6.90;;
22955;SDS011;40888;48.148;11.526;2023-06-22T07:19:41;13.32;;;6.63;;
22955;SDS011;40888;48.148;11.526;2023-06-22T07:22:07;14.27;;;6.85;;
22955;SDS011;40888;48.148;11.526;2023-06-22T07:24:33;12.75;;;7.38;;
22955;SDS011;40888;48.148;11.526;2023-06-22T07:26:59;13.65;;;7.80;;
22955;SDS011;40888;48.148;11.526;2023-06-22T07:29:25;13.65;;;6.88;;
22955;SDS011;40888;48.148;11.526;2023-06-22T07:31:51;10.00;;;6.25;;
22955;SDS011;40888;48.148;11.526;2023-06-22T07:34:18;13.23;;;7.43;;
22955;SDS011;40888;48.148;11.526;2023-06-22T07:36:44;16.27;;;7.53;;
22955;SDS011;40888;48.148;11.526;2023-06-22T07:39:11;15.55;;;7.50;;
22955;SDS011;40888;48.148;11.526;2023-06-22T07:41:39;12.52;;;6.90;;
22955;SDS011;40888;48.148;11.526;2023-06-22T07:44:08;11.23;;;7.25;;
22955;SDS011;40888;48.148;11.526;2023-06-22T07:46:33;12.40;;;7.13;;
22955;SDS011;40888;48.148;11.526;2023-06-22T07:48:59;13.48;;;7.55;;
22955;SDS011;40888;48.148;11.526;2023-06-22T07:51:26;16.02;;;7.50;;
22955;SDS011;40888;48.148;11.526;2023-06-22T07:53:52;12.80;;;7.28;;
22955;SDS011;40888;48.148;11.526;2023-06-22T07:56:17;9.73;;;7.35;;
22955;SDS011;40888;48.148;11.526;2023-06-22T07:58:47;12.80;;;7.30;;
22955;SDS011;40888;48.148;11.526;2023-06-22T08:03:44;14.43;;;7.60;;
22955;SDS011;40888;48.148;11.526;2023-06-22T08:06:10;15.20;;;7.47;;
22955;SDS011;40888;48.148;11.526;2023-06-22T08:08:36;14.93;;;7.38;;
22955;SDS011;40888;48.148;11.526;2023-06-22T08:11:02;14.98;;;7.30;;
22955;SDS011;40888;48.148;11.526;2023-06-22T08:13:28;16.27;;;7.63;;
22955;SDS011;40888;48.148;11.526;2023-06-22T08:15:54;12.20;;;7.43;;
22955;SDS011;40888;48.148;11.526;2023-06-22T08:18:20;13.18;;;8.18;;
22955;SDS011;40888;48.148;11.526;2023-06-22T08:20:45;14.43;;;6.88;;
22955;SDS011;40888;48.148;11.526;2023-06-22T08:23:14;15.85;;;7.40;;
22955;SDS011;40888;48.148;11.526;2023-06-22T08:25:39;14.40;;;7.30;;
22955;SDS011;40888;48.148;11.526;2023-06-22T08:28:05;14.10;;;7.13;;
22955;SDS011;40888;48.148;11.526;2023-06-22T08:30:31;13.20;;;7.32;;
22955;SDS011;40888;48.148;11.526;2023-06-22T08:32:57;14.90;;;6.97;;
22955;SDS011;40888;48.148;11.526;2023-06-22T08:35:23;12.15;;;6.95;;
22955;SDS011;40888;48.148;11.526;2023-06-22T08:37:48;18.00;;;7.40;;
22955;SDS011;40888;48.148;11.526;2023-06-22T08:40:19;13.98;;;7.15;;
22955;SDS011;40888;48.148;11.526;2023-06-22T08:42:45;13.60;;;6.78;;
22955;SDS011;40888;48.148;11.526;2023-06-22T08:45:11;11.82;;;7.57;;
22955;SDS011;40888;48.148;11.526;2023-06-22T08:47:38;12.88;;;7.32;;
22955;SDS011;40888;48.148;11.526;2023-06-22T08:50:04;11.50;;;7.72;;
22955;SDS011;40888;48.148;11.526;2023-06-22T08:52:31;13.35;;;6.78;;
22955;SDS011;40888;48.148;11.526;2023-06-22T08:54:57;13.40;;;7.13;;
22955;SDS011;40888;48.148;11.526;2023-06-22T08:57:23;12.70;;;7.30;;
22955;SDS011;40888;48.148;11.526;2023-06-22T08:59:49;15.70;;;7.72;;
22955;SDS011;40888;48.148;11.526;2023-06-22T09:02:17;17.33;;;7.20;;
22955;SDS011;40888;48.148;11.526;2023-06-22T09:04:43;14.55;;;7.07;;
22955;SDS011;40888;48.148;11.526;2023-06-22T09:07:09;11.80;;;6.93;;
22955;SDS011;40888;48.148;11.526;2023-06-22T09:09:34;13.75;;;7.55;;
22955;SDS011;40888;48.148;11.526;2023-06-22T09:12:00;16.80;;;7.30;;
22955;SDS011;40888;48.148;11.526;2023-06-22T09:14:26;13.23;;;6.82;;
22955;SDS011;40888;48.148;11.526;2023-06-22T09:16:52;9.98;;;6.95;;
22955;SDS011;40888;48.148;11.526;2023-06-22T09:19:17;16.75;;;7.43;;
22955;SDS011;40888;48.148;11.526;2023-06-22T09:21:43;18.13;;;7.60;;
22955;SDS011;40888;48.148;11.526;2023-06-22T09:24:09;13.77;;;7.18;;
22955;SDS011;40888;48.148;11.526;2023-06-22T09:26:34;19.60;;;7.55;;
22955;SDS011;40888;48.148;11.526;2023-06-22T09:29:00;15.70;;;7.70;;
22955;SDS011;40888;48.148;11.526;2023-06-22T09:31:26;17.50;;;7.30;;
22955;SDS011;40888;48.148;11.526;2023-06-22T09:33:52;12.93;;;6.85;;
22955;SDS011;40888;48.148;11.526;2023-06-22T09:36:19;11.02;;;6.80;;
22955;SDS011;40888;48.148;11.526;2023-06-22T09:38:48;14.80;;;7.25;;
22955;SDS011;40888;48.148;11.526;2023-06-22T09:41:22;13.38;;;6.97;;
22955;SDS011;40888;48.148;11.526;2023-06-22T09:43:48;12.38;;;6.75;;
22955;SDS011;40888;48.148;11.526;2023-06-22T09:46:16;16.60;;;6.80;;
22955;SDS011;40888;48.148;11.526;2023-06-22T09:48:42;17.70;;;7.65;;
22955;SDS011;40888;48.148;11.526;2023-06-22T09:51:08;15.43;;;7.28;;
22955;SDS011;40888;48.148;11.526;2023-06-22T09:53:34;12.98;;;6.93;;
22955;SDS011;40888;48.148;11.526;2023-06-22T09:56:00;19.25;;;6.75;;
22955;SDS011;40888;48.148;11.526;2023-06-22T09:58:27;16.58;;;6.68;;
22955;SDS011;40888;48.148;11.526;2023-06-22T10:00:53;13.63;;;7.55;;
22955;SDS011;40888;48.148;11.526;2023-06-22T10:03:19;17.42;;;6.97;;
22955;SDS011;40888;48.148;11.526;2023-06-22T10:05:46;15.73;;;7.10;;
22955;SDS011;40888;48.148;11.526;2023-06-22T10:08:11;16.50;;;7.45;;
22955;SDS011;40888;48.148;11.526;2023-06-22T10:10:37;13.93;;;6.30;;
22955;SDS011;40888;48.148;11.526;2023-06-22T10:13:07;13.10;;;7.03;;
22955;SDS011;40888;48.148;11.526;2023-06-22T10:15:35;13.82;;;7.40;;
22955;SDS011;40888;48.148;11.526;2023-06-22T10:18:01;13.10;;;6.95;;
22955;SDS011;40888;48.148;11.526;2023-06-22T10:20:26;19.35;;;7.57;;
22955;SDS011;40888;48.148;11.526;2023-06-22T10:22:53;12.68;;;7.10;;
22955;SDS011;40888;48.148;11.526;2023-06-22T10:25:19;14.30;;;6.38;;
22955;SDS011;40888;48.148;11.526;2023-06-22T10:27:45;13.88;;;6.90;;
22955;SDS011;40888;48.148;11.526;2023-06-22T10:30:11;13.63;;;7.50;;
22955;SDS011;40888;48.148;11.526;2023-06-22T10:32:38;19.50;;;7.35;;
22955;SDS011;40888;48.148;11.526;2023-06-22T10:35:04;16.63;;;6.90;;
22955;SDS011;40888;48.148;11.526;2023-06-22T10:37:31;12.23;;;6.60;;
22955;SDS011;40888;48.148;11.526;2023-06-22T10:39:56;12.60;;;6.93;;
22955;SDS011;40888;48.148;11.526;2023-06-22T10:42:22;10.52;;;7.30;;
22955;SDS011;40888;48.148;11.526;2023-06-22T10:44:48;14.27;;;7.60;;
22955;SDS011;40888;48.148;11.526;2023-06-22T10:47:14;11.70;;;6.95;;
22955;SDS011;40888;48.148;11.526;2023-06-22T10:49:40;18.95;;;6.80;;
22955;SDS011;40888;48.148;11.526;2023-06-22T10:52:07;14.05;;;7.20;;
22955;SDS011;40888;48.148;11.526;2023-06-22T10:54:33;12.57;;;7.10;;
22955;SDS011;40888;48.148;11.526;2023-06-22T10:57:01;13.07;;;7.07;;
22955;SDS011;40888;48.148;11.526;2023-06-22T10:59:27;14.95;;;7.32;;
22955;SDS011;40888;48.148;11.526;2023-06-22T11:01:54;15.00;;;7.00;;
22955;SDS011;40888;48.148;11.526;2023-06-22T11:04:20;17.35;;;7.25;;
22955;SDS011;40888;48.148;11.526;2023-06-22T11:06:47;15.32;;;6.85;;
22955;SDS011;40888;48.148;11.526;2023-06-22T11:09:13;11.98;;;6.75;;
22955;SDS011;40888;48.148;11.526;2023-06-22T11:11:43;13.77;;;6.68;;
22955;SDS011;40888;48.148;11.526;2023-06-22T11:14:10;18.30;;;6.65;;
22955;SDS011;40888;48.148;11.526;2023-06-22T11:16:35;12.15;;;6.47;;
22955;SDS011;40888;48.148;11.526;2023-06-22T11:19:01;13.20;;;6.82;;
22955;SDS011;40888;48.148;11.526;2023-06-22T11:21:28;14.15;;;6.70;;
22955;SDS011;40888;48.148;11.526;2023-06-22T11:23:54;16.88;;;6.82;;
22955;SDS011;40888;48.148;11.526;2023-06-22T11:26:19;19.17;;;7.43;;
22955;SDS011;40888;48.148;11.526;2023-06-22T11:28:46;12.88;;;6.93;;
22955;SDS011;40888;48.148;11.526;2023-06-22T11:31:12;14.88;;;7.45;;
22955;SDS011;40888;48.148;11.526;2023-06-22T11:33:37;12.73;;;6.90;;
22955;SDS011;40888;48.148;11.526;2023-06-22T11:36:03;14.60;;;6.40;;
22955;SDS011;40888;48.148;11.526;2023-06-22T11:38:30;15.07;;;6.75;;
22955;SDS011;40888;48.148;11.526;2023-06-22T11:40:57;13.13;;;6.45;;
22955;SDS011;40888;48.148;11.526;2023-06-22T11:43:23;13.82;;;6.38;;
22955;SDS011;40888;48.148;11.526;2023-06-22T11:45:50;12.95;;;6.45;;
22955;SDS011;40888;48.148;11.526;2023-06-22T11:48:16;17.75;;;7.00;;
22955;SDS011;40888;48.148;11.526;2023-06-22T11:50:42;12.55;;;7.03;;
22955;SDS011;40888;48.148;11.526;2023-06-22T11:53:07;16.27;;;7.05;;
22955;SDS011;40888;48.148;11.526;2023-06-22T11:55:33;16.60;;;7.10;;
22955;SDS011;40888;48.148;11.526;2023-06-22T11:57:59;14.45;;;6.72;;
22955;SDS011;40888;48.148;11.526;2023-06-22T12:00:28;15.70;;;7.13;;
22955;SDS011;40888;48.148;11.526;2023-06-22T12:02:57;12.40;;;7.07;;
22955;SDS011;40888;48.148;11.526;2023-06-22T12:05:23;16.48;;;6.63;;
22955;SDS011;40888;48.148;11.526;2023-06-22T12:07:52;15.70;;;7.97;;
22955;SDS011;40888;48.148;11.526;2023-06-22T12:10:19;11.75;;;7.00;;
22955;SDS011;40888;48.148;11.526;2023-06-22T12:12:45;14.77;;;6.85;;
22955;SDS011;40888;48.148;11.526;2023-06-22T12:15:11;11.65;;;6.60;;
22955;SDS011;40888;48.148;11.526;2023-06-22T12:17:37;15.05;;;7.75;;
22955;SDS011;40888;48.148;11.526;2023-06-22T12:20:03;16.75;;;7.20;;
22955;SDS011;40888;48.148;11.526;2023-06-22T12:22:33;14.27;;;7.30;;
22955;SDS011;40888;48.148;11.526;2023-06-22T12:25:00;10.68;;;6.60;;
22955;SDS011;40888;48.148;11.526;2023-06-22T12:27:26;15.00;;;6.70;;
22955;SDS011;40888;48.148;11.526;2023-06-22T12:29:52;16.95;;;7.32;;
22955;SDS011;40888;48.148;11.526;2023-06-22T12:32:18;18.10;;;6.93;;
22955;SDS011;40888;48.148;11.526;2023-06-22T12:34:44;12.98;;;6.53;;
22955;SDS011;40888;48.148;11.526;2023-06-22T12:37:10;10.80;;;6.22;;
22955;SDS011;40888;48.148;11.526;2023-06-22T12:39:36;15.43;;;6.68;;
22955;SDS011;40888;48.148;11.526;2023-06-22T12:42:02;20.58;;;6.95;;
22955;SDS011;40888;48.148;11.526;2023-06-22T12:44:28;12.10;;;6.45;;
22955;SDS011;40888;48.148;11.526;2023-06-22T12:46:53;16.00;;;7.25;;
22955;SDS011;40888;48.148;11.526;2023-06-22T12:49:19;15.02;;;7.03;;
22955;SDS011;40888;48.148;11.526;2023-06-22T12:51:45;14.05;;;6.68;;
22955;SDS011;40888;48.148;11.526;2023-06-22T12:54:11;14.98;;;6.60;;
22955;SDS011;40888;48.148;11.526;2023-06-22T12:56:37;14.95;;;6.15;;
22955;SDS011;40888;48.148;11.526;2023-06-22T12:59:03;15.20;;;6.32;;
22955;SDS011;40888;48.148;11.526;2023-06-22T13:01:31;18.17;;;6.68;;
22955;SDS011;40888;48.148;11.526;2023-06-22T13:04:00;16.92;;;6.90;;
22955;SDS011;40888;48.148;11.526;2023-06-22T13:06:25;13.15;;;7.07;;
22955;SDS011;40888;48.148;11.526;2023-06-22T13:08:51;16.35;;;6.60;;
22955;SDS011;40888;48.148;11.526;2023-06-22T13:11:17;13.38;;;6.35;;
22955;SDS011;40888;48.148;11.526;2023-06-22T13:13:44;14.77;;;6.80;;
22955;SDS011;40888;48.148;11.526;2023-06-22T13:16:10;17.33;;;6.60;;
22955;SDS011;40888;48.148;11.526;2023-06-22T13:18:36;12.23;;;6.53;;
22955;SDS011;40888;48.148;11.526;2023-06-22T13:21:02;16.70;;;6.75;;
22955;SDS011;40888;48.148;11.526;2023-06-22T13:23:29;12.63;;;6.57;;
22955;SDS011;40888;48.148;11.526;2023-06-22T13:25:54;16.52;;;6.45;;
22955;SDS011;40888;48.148;11.526;2023-06-22T13:28:20;16.08;;;6.95;;
22955;SDS011;40888;48.148;11.526;2023-06-22T13:30:46;16.85;;;6.72;;
22955;SDS011;40888;48.148;11.526;2023-06-22T13:33:13;16.60;;;6.47;;
22955;SDS011;40888;48.148;11.526;2023-06-22T13:35:39;15.25;;;6.53;;
22955;SDS011;40888;48.148;11.526;2023-06-22T13:38:07;12.30;;;6.65;;
22955;SDS011;40888;48.148;11.526;2023-06-22T13:40:37;13.20;;;6.32;;
22955;SDS011;40888;48.148;11.526;2023-06-22T13:43:03;15.75;;;7.03;;
22955;SDS011;40888;48.148;11.526;2023-06-22T13:45:29;18.40;;;6.25;;
22955;SDS011;40888;48.148;11.526;2023-06-22T13:47:55;14.63;;;7.00;;
22955;SDS011;40888;48.148;11.526;2023-06-22T13:50:21;10.88;;;6.43;;
22955;SDS011;40888;48.148;11.526;2023-06-22T13:52:47;14.43;;;7.28;;
22955;SDS011;40888;48.148;11.526;2023-06-22T13:55:13;16.77;;;6.90;;
22955;SDS011;40888;48.148;11.526;2023-06-22T13:57:39;17.70;;;7.03;;
22955;SDS011;40888;48.148;11.526;2023-06-22T14:00:06;15.35;;;6.43;;
22955;SDS011;40888;48.148;11.526;2023-06-22T14:02:33;17.02;;;6.63;;
22955;SDS011;40888;48.148;11.526;2023-06-22T14:04:59;14.32;;;6.38;;
22955;SDS011;40888;48.148;11.526;2023-06-22T14:07:25;13.30;;;6.40;;
22955;SDS011;40888;48.148;11.526;2023-06-22T14:09:51;14.27;;;6.35;;
22955;SDS011;40888;48.148;11.526;2023-06-22T14:12:17;18.35;;;6.68;;
22955;SDS011;40888;48.148;11.526;2023-06-22T14:14:43;9.90;;;6.18;;
22955;SDS011;40888;48.148;11.526;2023-06-22T14:17:09;11.63;;;5.78;;
22955;SDS011;40888;48.148;11.526;2023-06-22T14:19:37;13.27;;;5.78;;
22955;SDS011;40888;48.148;11.526;2023-06-22T14:22:03;13.90;;;5.93;;
22955;SDS011;40888;48.148;11.526;2023-06-22T14:24:29;17.17;;;6.72;;
22955;SDS011;40888;48.148;11.526;2023-06-22T14:29:21;10.95;;;6.07;;
22955;SDS011;40888;48.148;11.526;2023-06-22T14:31:47;12.05;;;6.10;;
22955;SDS011;40888;48.148;11.526;2023-06-22T14:34:14;13.40;;;6.35;;
22955;SDS011;40888;48.148;11.526;2023-06-22T14:36:40;16.17;;;6.32;;